createdAt,value
2019-04-24T00:02:02.095Z,6.43
2019-04-24T00:05:09.260Z,6.80
2019-04-24T00:08:01.937Z,5.67
2019-04-24T00:21:21.847Z,6.30
2019-04-24T00:24:28.900Z,5.60
2019-04-24T00:27:18.522Z,5.07
2019-04-24T00:30:30.326Z,6.50
2019-04-24T00:33:42.784Z,5.83
2019-04-24T00:36:50.882Z,5.60
2019-04-24T00:39:47.697Z,5.70
2019-04-24T00:43:20.592Z,5.07
2019-04-24T00:46:19.285Z,6.10
2019-04-24T00:49:20.541Z,5.00
2019-04-24T00:52:14.849Z,5.10
2019-04-24T00:55:29.212Z,5.53
2019-04-24T00:58:44.709Z,5.43
2019-04-24T01:02:18.670Z,5.70
2019-04-24T01:05:56.896Z,5.30
2019-04-24T01:08:47.095Z,5.47
2019-04-24T01:12:04.555Z,5.60
2019-04-24T01:18:12.491Z,5.40
2019-04-24T01:21:20.661Z,5.10
2019-04-24T01:24:19.660Z,5.20
2019-04-24T01:27:35.800Z,5.10
2019-04-24T01:31:13.442Z,5.90
2019-04-24T01:38:05.138Z,5.60
2019-04-24T01:41:06.975Z,5.43
2019-04-24T01:44:12.147Z,5.07
2019-04-24T01:53:28.200Z,4.77
2019-04-24T01:56:43.553Z,4.77
2019-04-24T02:03:06.336Z,5.10
2019-04-24T02:06:05.624Z,5.20
2019-04-24T02:09:17.661Z,4.97
2019-04-24T02:12:18.426Z,6.53
2019-04-24T02:24:43.600Z,5.77
2019-04-24T02:27:56.596Z,4.80
2019-04-24T02:37:30.666Z,4.93
2019-04-24T02:40:46.937Z,4.57
2019-04-24T02:43:51.197Z,6.87
2019-04-24T02:56:26.817Z,5.10
2019-04-24T03:05:50.884Z,5.10
2019-04-24T03:08:57.576Z,5.10
2019-04-24T03:15:17.104Z,4.57
2019-04-24T03:21:38.833Z,4.70
2019-04-24T03:24:40.621Z,4.60
2019-04-24T03:37:37.948Z,6.23
2019-04-24T03:52:54.028Z,10.60
2019-04-24T03:59:51.006Z,5.40
2019-04-24T04:03:20.605Z,6.30
2019-04-24T04:06:27.819Z,5.17
2019-04-24T04:09:41.529Z,4.80
2019-04-24T04:12:49.262Z,5.37
2019-04-24T04:15:33.939Z,6.43
2019-04-24T04:21:54.793Z,5.13
2019-04-24T04:25:11.940Z,8.33
2019-04-24T04:28:10.800Z,7.70
2019-04-24T04:31:44.005Z,5.73
2019-04-24T04:47:27.292Z,6.27
2019-04-24T04:54:11.015Z,5.90
2019-04-24T04:57:45.171Z,6.50
2019-04-24T05:00:26.515Z,5.77
2019-04-24T05:03:37.529Z,5.93
2019-04-24T05:07:08.770Z,6.07
2019-04-24T05:12:48.981Z,5.40
2019-04-24T05:16:10.666Z,5.83
2019-04-24T05:29:03.068Z,6.60
2019-04-24T05:32:05.013Z,7.10
2019-04-24T05:35:26.361Z,6.20
2019-04-24T05:38:48.643Z,7.77
2019-04-24T05:44:47.381Z,6.00
2019-04-24T05:51:31.081Z,9.93
2019-04-24T05:55:26.844Z,6.57
2019-04-24T05:58:25.128Z,6.23
2019-04-24T06:02:04.763Z,6.97
2019-04-24T06:11:36.322Z,8.80
2019-04-24T06:14:43.567Z,6.10
2019-04-24T06:18:12.354Z,9.33
2019-04-24T06:30:39.338Z,6.63
2019-04-24T06:40:20.979Z,5.20
2019-04-24T06:46:31.385Z,4.67
2019-04-24T06:49:16.613Z,4.67
2019-04-24T06:52:47.292Z,7.87
2019-04-24T06:58:51.090Z,5.30
2019-04-24T07:02:22.816Z,8.53
2019-04-24T07:05:38.930Z,6.73
2019-04-24T07:09:07.383Z,4.67
2019-04-24T07:11:58.091Z,5.30
2019-04-24T07:18:24.043Z,6.30
2019-04-24T07:21:39.627Z,4.10
2019-04-24T07:27:52.350Z,5.10
2019-04-24T07:34:39.406Z,5.53
2019-04-24T07:44:04.030Z,4.60
2019-04-24T07:47:09.326Z,3.17
2019-04-24T07:50:24.939Z,3.37
2019-04-24T07:57:25.295Z,6.00
2019-04-24T08:00:20.583Z,4.17
2019-04-24T08:03:34.157Z,3.50
2019-04-24T08:06:46.051Z,2.87
2019-04-24T08:10:15.623Z,3.43
2019-04-24T08:16:20.792Z,9.83
2019-04-24T08:19:54.514Z,4.10
2019-04-24T08:22:35.170Z,2.67
2019-04-24T08:35:18.368Z,2.23
2019-04-24T08:39:18.015Z,4.70
2019-04-24T08:42:15.431Z,2.90
2019-04-24T08:48:41.296Z,2.97
2019-04-24T08:54:41.318Z,3.23
2019-04-24T09:01:09.988Z,2.60
2019-04-24T09:04:15.458Z,6.90
2019-04-24T09:07:16.871Z,4.00
2019-04-24T09:10:53.805Z,3.43
2019-04-24T09:14:15.872Z,6.97
2019-04-24T09:17:04.114Z,4.40
2019-04-24T09:33:02.791Z,4.10
2019-04-24T09:39:25.615Z,3.73
2019-04-24T09:48:52.778Z,2.77
2019-04-24T09:51:57.301Z,3.57
2019-04-24T09:55:08.832Z,3.07
2019-04-24T09:58:22.091Z,3.10
2019-04-24T10:01:39.158Z,4.67
2019-04-24T10:04:59.537Z,4.90
2019-04-24T10:07:50.513Z,5.47
2019-04-24T10:10:56.748Z,2.77
2019-04-24T10:17:18.901Z,3.50
2019-04-24T10:20:28.797Z,7.40
2019-04-24T10:27:03.399Z,2.37
2019-04-24T10:30:13.794Z,3.00
2019-04-24T10:43:30.981Z,2.77
2019-04-24T10:47:12.707Z,2.80
2019-04-24T10:50:05.328Z,4.30
2019-04-24T10:56:30.644Z,5.10
2019-04-24T11:03:05.283Z,3.53
2019-04-24T11:06:12.831Z,1.63
2019-04-24T11:09:49.127Z,2.87
2019-04-24T11:13:05.197Z,4.70
2019-04-24T11:16:18.719Z,2.20
2019-04-24T11:19:38.574Z,3.30
2019-04-24T11:23:08.777Z,6.27
2019-04-24T11:26:18.995Z,2.93
2019-04-24T11:29:36.056Z,4.90
2019-04-24T11:32:51.616Z,2.20
2019-04-24T11:42:56.122Z,2.80
2019-04-24T11:46:48.788Z,3.47
2019-04-24T11:50:00.860Z,4.60
2019-04-24T11:53:11.622Z,4.43
2019-04-24T11:56:31.287Z,4.47
2019-04-24T11:59:16.883Z,1.90
2019-04-24T12:02:52.970Z,2.93
2019-04-24T12:06:04.464Z,10.17
2019-04-24T12:09:04.456Z,3.43
2019-04-24T12:12:14.609Z,4.47
2019-04-24T12:15:34.720Z,2.47
2019-04-24T12:21:51.737Z,2.17
2019-04-24T12:24:58.647Z,2.27
2019-04-24T12:28:18.879Z,3.73
2019-04-24T12:31:39.397Z,4.30
2019-04-24T12:34:46.382Z,3.70
2019-04-24T12:37:58.698Z,5.90
2019-04-24T12:41:05.660Z,3.37
2019-04-24T12:44:32.055Z,4.70
2019-04-24T12:47:35.904Z,1.50
2019-04-24T12:50:56.329Z,1.50
2019-04-24T12:54:05.703Z,1.47
2019-04-24T13:04:55.895Z,4.10
2019-04-24T13:11:19.860Z,1.70
2019-04-24T13:14:47.796Z,1.23
2019-04-24T13:20:40.498Z,2.97
2019-04-24T13:23:56.846Z,5.43
2019-04-24T13:27:39.763Z,1.83
2019-04-24T13:30:35.983Z,1.53
2019-04-24T13:33:39.251Z,2.27
2019-04-24T13:36:57.127Z,2.93
2019-04-24T13:39:52.846Z,3.37
2019-04-24T13:43:05.667Z,2.73
2019-04-24T13:46:03.151Z,2.63
2019-04-24T13:49:15.214Z,3.00
2019-04-24T13:52:57.854Z,1.93
2019-04-24T13:58:37.310Z,1.87
2019-04-24T14:01:58.584Z,3.03
2019-04-24T14:04:58.419Z,2.70
2019-04-24T14:08:07.287Z,6.10
2019-04-24T14:11:26.677Z,3.80
2019-04-24T14:14:12.375Z,5.50
2019-04-24T14:17:16.607Z,2.40
2019-04-24T14:20:36.081Z,3.10
2019-04-24T14:23:51.439Z,3.63
2019-04-24T14:27:01.090Z,2.63
2019-04-24T14:29:58.386Z,3.13
2019-04-24T14:39:25.376Z,2.80
2019-04-24T14:45:45.175Z,2.20
2019-04-24T14:48:40.643Z,2.13
2019-04-24T14:52:01.064Z,3.27
2019-04-24T14:58:03.858Z,2.07
2019-04-24T15:01:09.853Z,2.10
2019-04-24T15:04:17.302Z,3.43
2019-04-24T15:10:39.634Z,2.13
2019-04-24T15:23:22.309Z,4.20
2019-04-24T15:26:29.845Z,4.20
2019-04-24T15:29:37.704Z,6.63
2019-04-24T15:32:40.093Z,6.07
2019-04-24T15:35:51.469Z,2.40
2019-04-24T15:38:56.127Z,6.60
2019-04-24T15:42:02.431Z,3.73
2019-04-24T15:45:05.895Z,2.83
2019-04-24T15:48:27.841Z,3.50
2019-04-24T15:51:23.688Z,5.83
2019-04-24T15:54:00.777Z,2.40
2019-04-24T15:57:06.904Z,2.40
2019-04-24T16:00:47.727Z,2.50
2019-04-24T16:03:57.865Z,3.57
2019-04-24T16:06:45.857Z,5.00
2019-04-24T16:09:54.920Z,2.20
2019-04-24T16:13:00.348Z,5.03
2019-04-24T16:19:43.009Z,7.07
2019-04-24T16:22:44.380Z,5.30
2019-04-24T16:25:59.160Z,2.60
2019-04-24T16:29:10.605Z,5.07
2019-04-24T16:35:24.847Z,3.33
2019-04-24T16:44:43.023Z,2.60
2019-04-24T16:48:23.370Z,2.90
2019-04-24T16:51:00.686Z,2.57
2019-04-24T16:57:04.974Z,4.10
2019-04-24T17:03:26.225Z,3.30
2019-04-24T17:06:45.732Z,2.30
2019-04-24T17:09:35.373Z,3.57
2019-04-24T17:12:34.249Z,2.90
2019-04-24T17:15:51.842Z,2.10
2019-04-24T17:25:08.772Z,2.23
2019-04-24T17:34:30.561Z,1.67
2019-04-24T17:37:04.604Z,3.13
2019-04-24T17:40:15.637Z,2.40
2019-04-24T17:43:54.621Z,3.90
2019-04-24T17:47:04.123Z,3.67
2019-04-24T17:53:16.788Z,1.47
2019-04-24T17:58:54.380Z,1.50
2019-04-24T18:02:02.064Z,6.93
2019-04-24T18:05:08.851Z,4.90
2019-04-24T18:08:13.911Z,4.03
2019-04-24T18:11:18.881Z,1.17
2019-04-24T18:14:23.901Z,1.80
2019-04-24T18:17:28.875Z,5.50
2019-04-24T18:20:33.977Z,2.63
2019-04-24T18:23:38.964Z,3.23
2019-04-24T18:26:51.287Z,1.90
2019-04-24T18:29:56.357Z,3.13
2019-04-24T18:33:04.108Z,3.37
2019-04-24T18:36:08.524Z,5.27
2019-04-24T18:39:13.516Z,2.40
2019-04-24T18:42:18.526Z,2.30
2019-04-24T18:45:23.523Z,2.10
2019-04-24T18:48:28.517Z,1.23
2019-04-24T18:51:33.429Z,3.63
2019-04-24T18:54:38.422Z,3.33
2019-04-24T18:57:43.507Z,3.63
2019-04-24T19:00:48.478Z,5.50
2019-04-24T19:03:53.607Z,17.07
2019-04-24T19:06:58.841Z,23.60
2019-04-24T19:10:04.440Z,21.00
2019-04-24T19:13:09.454Z,19.33
2019-04-24T19:16:14.511Z,12.27
2019-04-24T19:19:19.444Z,22.00
2019-04-24T19:22:24.512Z,14.60
2019-04-24T19:25:31.258Z,17.73
2019-04-24T19:28:36.335Z,22.60
2019-04-24T19:31:42.361Z,12.40
2019-04-24T19:34:47.622Z,9.03
2019-04-24T19:37:52.723Z,10.93
2019-04-24T19:40:57.736Z,7.90
2019-04-24T19:44:03.293Z,9.73
2019-04-24T19:47:08.310Z,5.17
2019-04-24T19:50:14.392Z,9.33
2019-04-24T19:53:23.231Z,9.57
2019-04-24T19:56:26.340Z,6.30
2019-04-24T19:59:31.571Z,6.60
2019-04-24T20:02:36.789Z,4.30
2019-04-24T20:05:42.294Z,3.80
2019-04-24T20:08:47.381Z,7.47
2019-04-24T20:11:54.044Z,5.30
2019-04-24T20:14:59.213Z,5.10
2019-04-24T20:18:04.322Z,10.20
2019-04-24T20:21:09.465Z,3.40
2019-04-24T20:24:15.053Z,4.97
2019-04-24T20:27:20.224Z,8.07
2019-04-24T20:30:25.560Z,2.07
2019-04-24T20:33:32.489Z,0.80
2019-04-24T20:36:38.408Z,3.40
2019-04-24T20:39:43.557Z,1.00
2019-04-24T20:42:48.838Z,3.93
2019-04-24T20:45:53.909Z,2.57
2019-04-24T20:48:59.056Z,1.53
2019-04-24T20:52:04.383Z,1.60
2019-04-24T20:55:09.616Z,3.13
2019-04-24T20:58:14.637Z,2.40
2019-04-24T21:01:21.963Z,2.20
2019-04-24T21:04:28.140Z,1.50
2019-04-24T21:07:45.618Z,3.10
2019-04-24T21:10:51.030Z,2.53
2019-04-24T21:13:56.184Z,0.80
2019-04-24T21:17:01.353Z,3.20
2019-04-24T21:20:06.529Z,1.00
2019-04-24T21:23:11.743Z,4.10
2019-04-24T21:26:16.850Z,0.80
2019-04-24T21:29:23.558Z,0.97
2019-04-24T21:32:28.806Z,1.37
2019-04-24T21:35:34.084Z,1.57
2019-04-24T21:38:39.149Z,2.60
2019-04-24T21:41:44.208Z,1.33
2019-04-24T21:44:49.157Z,1.53
2019-04-24T21:47:54.257Z,0.83
2019-04-24T21:50:59.276Z,1.30
2019-04-24T21:54:05.102Z,3.00
2019-04-24T21:57:11.985Z,1.13
2019-04-24T22:00:38.958Z,1.10
2019-04-24T22:04:11.985Z,1.70
2019-04-24T22:07:24.222Z,1.13
2019-04-24T22:10:30.701Z,2.00
2019-04-24T22:13:36.947Z,2.23
2019-04-24T22:16:42.776Z,2.00
2019-04-24T22:19:48.081Z,1.37
2019-04-24T22:23:03.416Z,2.60
2019-04-24T22:26:08.698Z,1.43
2019-04-24T22:29:13.756Z,1.07
2019-04-24T22:32:33.467Z,1.97
2019-04-24T22:35:42.071Z,2.70
2019-04-24T22:39:09.378Z,3.20
2019-04-24T22:42:14.376Z,1.50
2019-04-24T22:45:21.549Z,1.77
2019-04-24T22:48:27.020Z,1.43
2019-04-24T22:51:32.814Z,3.40
2019-04-24T22:54:40.229Z,1.47
2019-04-24T22:57:45.462Z,2.50
2019-04-24T23:00:50.460Z,2.93
2019-04-24T23:03:55.441Z,2.40
2019-04-24T23:07:01.353Z,2.20
2019-04-24T23:10:06.641Z,2.00
2019-04-24T23:13:12.021Z,1.07
2019-04-24T23:16:17.085Z,1.53
2019-04-24T23:19:23.796Z,1.47
2019-04-24T23:22:37.689Z,4.20
2019-04-24T23:25:47.545Z,2.20
2019-04-24T23:29:02.499Z,1.30
2019-04-24T23:32:26.638Z,0.67
2019-04-24T23:35:31.702Z,2.20
2019-04-24T23:38:36.765Z,1.13
2019-04-24T23:41:42.414Z,1.30
2019-04-24T23:44:47.512Z,1.53
2019-04-24T23:47:52.496Z,0.80
2019-04-24T23:50:57.428Z,2.13
2019-04-24T23:54:02.533Z,1.27
2019-04-24T23:57:07.552Z,2.03
